EFJO

Joensuu Airport

Joensuu / Liperi, Finland
METAR EFJO 171620Z 17007KT 130V210 CAVOK 22/13 Q1017
Observed Flight Rules
Aug-17 @ 16:20 UTC (33 minutes ago) Visual Flight Rules
Wind Visibility Clouds
170° at 7 knots 10,000+ meters
  • Clear skies
Temperatures Readings
Current 22°C / 72°F
Dewpoint 13°C / 55°F
Humidity 57%
Altimeter 30.03" Hg
Pressure 1017 hPa
Elevation 117
METAR EFJO 171620Z 17007KT 130V210 CAVOK 22/13 Q1017
Observed Flight Rules
Aug-17 @ 16:20 UTC
(33 minutes ago)
VFR
Wind Visibility
170° at 7 knots 10,000+ meters
Clouds
  • Clear skies
Temperature Dewpoint
22°C / 72°F 13°C / 55°F
Humidity Altimeter Pressure
57% 30.03" Hg 1017 hPa